PWSweather.com
Personal Weather Stations
Station Observations
STPETERS
BroadstairsGB

BroadstairsGB

Lat: 51.37, Lon: 1.423

Elevation: 141

Station Type: WH1081

Latest ConditionsUpdated 10:30:02 AM GMT Wednesday, Apr 1, 2015
Currently Today's Max Today's Min Today's Average
Temperature 47.7°F8.7°C 47.7°F8.7°C 39.9°F4.4°C 42.9°F6.1°C
Dew Point 31.8°F-0.1°C 32.7°F0.4°C 27.6°F-2.4°C 30.1°F-1.1°C
Winds 16.2 mph NW26.1 kmh NW 20.7 mph NW33.3 kmh NW - 18.1 mph 29.1 kmh
Wind Gusts 22.8 mph36.7 kmh 28.9 mph46.5 kmh - -
Humidity 54% 63% 54% 60%
Pressure 30.27 in1025.1 mb 30.27 in1025.1 mb 30.08 in1018.6 mb -
Hour Temp Dew Point Humidity Winds Wind Gusts Pressure Precip Precip Rate Daily Precip Total
10:30 AM 47.7°F8.7°C 31.8°F-0.1°C 54% 16.2 mph NW26.1 kmh NW 22.8 mph36.7 kmh 30.27 in1025.1 mb 0.00 in0.0 mm 0.00 in0.0 mm 0.00 in0.0 mm
10:15 AM 47.1°F8.4°C 32.7°F0.4°C 57% 14.5 mph NW23.3 kmh NW 20.6 mph33.2 kmh 30.27 in1025.1 mb 0.00 in0.0 mm 0.00 in0.0 mm 0.00 in0.0 mm
10:00 AM 46.6°F8.1°C 31.7°F-0.2°C 56% 17.2 mph NW27.7 kmh NW 19.7 mph31.7 kmh 30.27 in1025.1 mb 0.00 in0.0 mm 0.00 in0.0 mm 0.00 in0.0 mm
09:45 AM 45.9°F7.7°C 31.1°F-0.5°C 56% 18.1 mph NW29.1 kmh NW 24.4 mph39.3 kmh 30.26 in1024.7 mb 0.00 in0.0 mm 0.00 in0.0 mm 0.00 in0.0 mm
09:30 AM 45.7°F7.6°C 30.9°F-0.6°C 56% 18.1 mph NW29.1 kmh NW 21.3 mph34.3 kmh 30.26 in1024.7 mb 0.00 in0.0 mm 0.00 in0.0 mm 0.00 in0.0 mm
09:15 AM 45.1°F7.3°C 31.3°F-0.4°C 58% 16.3 mph NW26.2 kmh NW 21.3 mph34.3 kmh 30.25 in1024.4 mb 0.00 in0.0 mm 0.00 in0.0 mm 0.00 in0.0 mm
09:00 AM 45.1°F7.3°C 31.7°F-0.2°C 59% 16.1 mph NW25.9 kmh NW 19.7 mph31.7 kmh 30.26 in1024.7 mb 0.00 in0.0 mm 0.00 in0.0 mm 0.00 in0.0 mm
08:45 AM 44.2°F6.8°C 31.2°F-0.4°C 60% 16.4 mph NW26.4 kmh NW 20.6 mph33.2 kmh 30.25 in1024.4 mb 0.00 in0.0 mm 0.00 in0.0 mm 0.00 in0.0 mm
08:30 AM 43.9°F6.6°C 30.5°F-0.8°C 59% 19.3 mph WNW31.1 kmh WNW 25.1 mph40.4 kmh 30.25 in1024.4 mb 0.00 in0.0 mm 0.00 in0.0 mm 0.00 in0.0 mm
08:15 AM 43.3°F6.3°C 30.8°F-0.7°C 61% 18.1 mph NW29.1 kmh NW 22.8 mph36.7 kmh 30.25 in1024.4 mb 0.00 in0.0 mm 0.00 in0.0 mm 0.00 in0.0 mm
08:00 AM 43.2°F6.2°C 30.6°F-0.8°C 61% 17.3 mph NW27.8 kmh NW 21.3 mph34.3 kmh 30.25 in1024.4 mb 0.00 in0.0 mm 0.00 in0.0 mm 0.00 in0.0 mm
07:45 AM 43.0°F6.1°C 30.5°F-0.8°C 61% 17.7 mph NW28.5 kmh NW 21.3 mph34.3 kmh 30.24 in1024.0 mb 0.00 in0.0 mm 0.00 in0.0 mm 0.00 in0.0 mm
07:30 AM 42.8°F6.0°C 30.7°F-0.7°C 62% 17.6 mph W28.3 kmh W 24.4 mph39.3 kmh 30.23 in1023.7 mb 0.00 in0.0 mm 0.00 in0.0 mm 0.00 in0.0 mm
07:15 AM 42.4°F5.8°C 30.0°F-1.1°C 61% 17.2 mph NW27.7 kmh NW 20.6 mph33.2 kmh 30.23 in1023.7 mb 0.00 in0.0 mm 0.00 in0.0 mm 0.00 in0.0 mm
07:00 AM 42.3°F5.7°C 29.8°F-1.2°C 61% 18.1 mph NW29.1 kmh NW 24.4 mph39.3 kmh 30.23 in1023.7 mb 0.00 in0.0 mm 0.00 in0.0 mm 0.00 in0.0 mm
06:45 AM 41.9°F5.5°C 29.8°F-1.2°C 62% 16.9 mph WNW27.2 kmh WNW 25.1 mph40.4 kmh 30.22 in1023.4 mb 0.00 in0.0 mm 0.00 in0.0 mm 0.00 in0.0 mm
06:30 AM 41.7°F5.4°C 29.7°F-1.3°C 62% 15.8 mph WNW25.4 kmh WNW 23.5 mph37.8 kmh 30.21 in1023.0 mb 0.00 in0.0 mm 0.00 in0.0 mm 0.00 in0.0 mm
06:15 AM 41.5°F5.3°C 29.5°F-1.4°C 62% 17.5 mph NW28.2 kmh NW 22.1 mph35.6 kmh 30.21 in1023.0 mb 0.00 in0.0 mm 0.00 in0.0 mm 0.00 in0.0 mm
06:00 AM 41.4°F5.2°C 29.7°F-1.3°C 63% 16.8 mph NW27.0 kmh NW 21.3 mph34.3 kmh 30.20 in1022.7 mb 0.00 in0.0 mm 0.00 in0.0 mm 0.00 in0.0 mm
05:45 AM 41.4°F5.2°C 29.3°F-1.5°C 62% 17.6 mph NW28.3 kmh NW 22.1 mph35.6 kmh 30.20 in1022.7 mb 0.00 in0.0 mm 0.00 in0.0 mm 0.00 in0.0 mm
05:30 AM 41.4°F5.2°C 29.3°F-1.5°C 62% 17.0 mph WNW27.4 kmh WNW 21.3 mph34.3 kmh 30.20 in1022.7 mb 0.00 in0.0 mm 0.00 in0.0 mm 0.00 in0.0 mm
05:15 AM 41.4°F5.2°C 29.3°F-1.5°C 62% 18.6 mph NW29.9 kmh NW 22.8 mph36.7 kmh 30.19 in1022.4 mb 0.00 in0.0 mm 0.00 in0.0 mm 0.00 in0.0 mm
05:00 AM 41.5°F5.3°C 29.5°F-1.4°C 62% 19.3 mph NW31.1 kmh NW 23.5 mph37.8 kmh 30.19 in1022.4 mb 0.00 in0.0 mm 0.00 in0.0 mm 0.00 in0.0 mm
04:45 AM 41.7°F5.4°C 29.3°F-1.5°C 61% 18.3 mph WNW29.5 kmh WNW 25.1 mph40.4 kmh 30.18 in1022.0 mb 0.00 in0.0 mm 0.00 in0.0 mm 0.00 in0.0 mm
04:30 AM 41.5°F5.3°C 29.1°F-1.6°C 61% 19.4 mph W31.2 kmh W 27.3 mph43.9 kmh 30.17 in1021.7 mb 0.00 in0.0 mm 0.00 in0.0 mm 0.00 in0.0 mm
04:15 AM 41.5°F5.3°C 29.5°F-1.4°C 62% 18.1 mph NW29.1 kmh NW 22.8 mph36.7 kmh 30.16 in1021.3 mb 0.00 in0.0 mm 0.00 in0.0 mm 0.00 in0.0 mm
04:00 AM 41.7°F5.4°C 30.1°F-1.1°C 63% 18.4 mph NW29.6 kmh NW 22.1 mph35.6 kmh 30.16 in1021.3 mb 0.00 in0.0 mm 0.00 in0.0 mm 0.00 in0.0 mm
03:45 AM 41.7°F5.4°C 30.1°F-1.1°C 63% 18.2 mph NW29.3 kmh NW 22.1 mph35.6 kmh 30.16 in1021.3 mb 0.00 in0.0 mm 0.00 in0.0 mm 0.00 in0.0 mm
03:30 AM 41.9°F5.5°C 29.8°F-1.2°C 62% 19.7 mph NW31.7 kmh NW 23.5 mph37.8 kmh 30.15 in1021.0 mb 0.00 in0.0 mm 0.00 in0.0 mm 0.00 in0.0 mm
03:15 AM 41.9°F5.5°C 29.8°F-1.2°C 62% 18.8 mph NW30.3 kmh NW 24.4 mph39.3 kmh 30.14 in1020.7 mb 0.00 in0.0 mm 0.00 in0.0 mm 0.00 in0.0 mm
03:00 AM 42.1°F5.6°C 29.6°F-1.3°C 61% 18.6 mph NW29.9 kmh NW 24.4 mph39.3 kmh 30.14 in1020.7 mb 0.00 in0.0 mm 0.00 in0.0 mm 0.00 in0.0 mm
02:45 AM 42.1°F5.6°C 29.2°F-1.6°C 60% 18.6 mph W29.9 kmh W 23.5 mph37.8 kmh 30.14 in1020.7 mb 0.00 in0.0 mm 0.00 in0.0 mm 0.00 in0.0 mm
02:30 AM 42.3°F5.7°C 29.0°F-1.7°C 59% 20.0 mph WNW32.2 kmh WNW 22.1 mph35.6 kmh 30.13 in1020.3 mb 0.00 in0.0 mm 0.00 in0.0 mm 0.00 in0.0 mm
02:15 AM 42.3°F5.7°C 29.8°F-1.2°C 61% 17.4 mph NW28.0 kmh NW 23.5 mph37.8 kmh 30.12 in1020.0 mb 0.00 in0.0 mm 0.00 in0.0 mm 0.00 in0.0 mm
02:00 AM 39.9°F4.4°C 27.6°F-2.4°C 61% 20.0 mph WNW32.2 kmh WNW 26.6 mph42.8 kmh 30.12 in1020.0 mb 0.00 in0.0 mm 0.00 in0.0 mm 0.00 in0.0 mm
01:45 AM 42.8°F6.0°C 29.5°F-1.4°C 59% 20.1 mph NW32.3 kmh NW 26.6 mph42.8 kmh 30.11 in1019.6 mb 0.00 in0.0 mm 0.00 in0.0 mm 0.00 in0.0 mm
01:30 AM 43.0°F6.1°C 30.5°F-0.8°C 61% 17.2 mph WNW27.7 kmh WNW 23.5 mph37.8 kmh 30.11 in1019.6 mb 0.00 in0.0 mm 0.00 in0.0 mm 0.00 in0.0 mm
01:15 AM 43.2°F6.2°C 29.8°F-1.2°C 59% 20.7 mph NW33.3 kmh NW 25.1 mph40.4 kmh 30.10 in1019.3 mb 0.00 in0.0 mm 0.00 in0.0 mm 0.00 in0.0 mm
01:00 AM 43.3°F6.3°C 29.6°F-1.3°C 58% 19.9 mph NW32.0 kmh NW 25.1 mph40.4 kmh 30.09 in1019.0 mb 0.00 in0.0 mm 0.00 in0.0 mm 0.00 in0.0 mm
12:45 AM 43.2°F6.2°C 29.4°F-1.4°C 58% 20.3 mph NW32.7 kmh NW 27.3 mph43.9 kmh 30.09 in1019.0 mb 0.00 in0.0 mm 0.00 in0.0 mm 0.00 in0.0 mm
12:30 AM 43.2°F6.2°C 30.2°F-1.0°C 60% 19.1 mph WNW30.7 kmh WNW 28.9 mph46.5 kmh 30.09 in1019.0 mb 0.00 in0.0 mm 0.00 in0.0 mm 0.00 in0.0 mm
12:15 AM 43.2°F6.2°C 31.0°F-0.6°C 62% 16.3 mph NW26.2 kmh NW 25.9 mph41.7 kmh 30.08 in1018.6 mb 0.00 in0.0 mm 0.00 in0.0 mm 0.00 in0.0 mm
12:00 AM 40.6°F4.8°C 28.7°F-1.8°C 62% 19.7 mph NW31.7 kmh NW 28.9 mph46.5 kmh 30.08 in1018.6 mb 0.00 in0.0 mm 0.00 in0.0 mm 0.00 in0.0 mm